Terminal Aerodrome Forecast
Issued by NWS

Home | Current Version | Previous Version | Text Only | Print | Product List | Glossary On
Versions: 1 2 3 4 5 6 7 8 9 10 11 12 13 14 15 16 17 18 19
467
FTUS42 KFFC 141128
TAFFTY
TAF
KFTY 141128Z 1412/1512 10006KT P6SM SCT120
     FM141600 13008KT P6SM BKN080
     FM150000 12007KT P6SM BKN060
     FM150600 11007KT P6SM BKN030
     FM150900 11007KT P6SM OVC015 PROB30 1509/1512 6SM -DZ BR
      OVC009=

USA.gov is the U.S. government's official web portal to all federal, state and local government web resources and services.